Wauneta, Nebraska
Current Conditions -  °F | °C
As of 10:53 AM on Thursday 23 Oct 2014 (Local Time) from KIML Reporting Station
Clear Clear  
Wind Chill: 69°   Ceiling: Unl
Heat Index: 69°   Visibility: 10mi
Dew Point: 46°   Wind: 13mph
Humidity: 44%   Direction: 200°SSW
Pressure: 30.11"   Gusts: NA
Location:  40.42°N, 101.37°W
Report Text: KIML 231653Z AUTO 20011KT 10SM CLR 21/08 A3011 RMK AO2 SLP186 T02060078 $
Loading
Personal Weather Stations






























Interactive Weather Map
Tropical Storm Tracking
New forecast layout! Learn more

10-Day Weather Forecast

Advertisements
Track Severe Weather on mobile